createdAt,value
2018-12-15T00:01:27.582Z,102789.61
2018-12-15T00:04:32.003Z,102789.46
2018-12-15T00:07:36.295Z,102795.53
2018-12-15T00:10:40.623Z,102799.55
2018-12-15T00:13:44.911Z,102800.41
2018-12-15T00:16:49.287Z,102806.24
2018-12-15T00:19:53.669Z,102803.56
2018-12-15T00:22:57.914Z,102794.42
2018-12-15T00:26:02.152Z,102796.75
2018-12-15T00:29:06.372Z,102797.11
2018-12-15T00:32:10.695Z,102797.11
2018-12-15T00:35:14.911Z,102793.09
2018-12-15T00:38:19.199Z,102785.80
2018-12-15T00:41:23.436Z,102794.54
2018-12-15T00:44:27.744Z,102796.75
2018-12-15T00:47:32.043Z,102790.28
2018-12-15T00:50:36.250Z,102794.06
2018-12-15T00:53:40.552Z,102792.37
2018-12-15T00:56:44.796Z,102792.48
2018-12-15T00:59:48.992Z,102797.34
2018-12-15T01:02:53.403Z,102803.09
2018-12-15T01:05:57.742Z,102805.02
2018-12-15T01:09:02.048Z,102806.23
2018-12-15T01:12:06.383Z,102811.48
2018-12-15T01:15:10.684Z,102815.86
2018-12-15T01:18:15.588Z,102814.04
2018-12-15T01:21:19.891Z,102822.55
2018-12-15T01:24:24.158Z,102816.36
2018-12-15T01:27:28.404Z,102824.01
2018-12-15T01:30:32.597Z,102822.78
2018-12-15T01:33:36.834Z,102823.49
2018-12-15T01:36:41.062Z,102826.92
2018-12-15T01:39:45.296Z,102824.62
2018-12-15T01:42:49.699Z,102824.98
2018-12-15T01:45:54.014Z,102827.31
2018-12-15T01:48:58.271Z,102825.46
2018-12-15T01:52:02.568Z,102831.80
2018-12-15T01:55:07.180Z,102834.01
2018-12-15T01:58:11.411Z,102831.21
2018-12-15T02:01:15.719Z,102830.94
2018-12-15T02:04:19.980Z,102835.42
2018-12-15T02:07:24.281Z,102841.88
2018-12-15T02:10:28.595Z,102835.06
2018-12-15T02:13:32.963Z,102833.84
2018-12-15T02:16:37.243Z,102836.63
2018-12-15T02:19:41.543Z,102842.46
2018-12-15T02:22:45.808Z,102845.61
2018-12-15T02:25:50.079Z,102842.33
2018-12-15T02:28:54.295Z,102840.88
2018-12-15T02:31:58.497Z,102840.88
2018-12-15T02:35:02.738Z,102845.38
2018-12-15T02:38:07.024Z,102840.60
2018-12-15T02:41:11.260Z,102842.42
2018-12-15T02:44:15.494Z,102847.19
2018-12-15T02:47:19.808Z,102853.29
2018-12-15T02:50:24.023Z,102857.30
2018-12-15T02:53:28.363Z,102853.17
2018-12-15T02:56:32.663Z,102854.04
2018-12-15T02:59:36.925Z,102851.84
2018-12-15T03:02:41.116Z,102849.63
2018-12-15T03:05:45.508Z,102859.98
2018-12-15T03:08:49.833Z,102850.50
2018-12-15T03:11:54.186Z,102848.69
2018-12-15T03:14:58.438Z,102853.05
2018-12-15T03:18:02.725Z,102845.96
2018-12-15T03:21:06.970Z,102850.37
2018-12-15T03:24:11.194Z,102849.62
2018-12-15T03:27:15.406Z,102843.04
2018-12-15T03:30:19.826Z,102853.99
2018-12-15T03:33:24.130Z,102847.05
2018-12-15T03:36:28.403Z,102843.98
2018-12-15T03:39:34.799Z,102842.92
2018-12-15T03:42:39.047Z,102848.28
2018-12-15T03:45:43.441Z,102847.89
2018-12-15T03:48:47.672Z,102849.34
2018-12-15T03:51:52.019Z,102849.62
2018-12-15T03:54:56.279Z,102845.96
2018-12-15T03:58:00.500Z,102849.03
2018-12-15T04:01:04.864Z,102849.50
2018-12-15T04:04:09.108Z,102848.64
2018-12-15T04:07:13.384Z,102845.33
2018-12-15T04:10:17.703Z,102848.12
2018-12-15T04:13:21.948Z,102848.62
2018-12-15T04:16:26.182Z,102855.31
2018-12-15T04:19:30.405Z,102847.88
2018-12-15T04:22:34.639Z,102845.31
2018-12-15T04:25:38.869Z,102852.12
2018-12-15T04:28:43.065Z,102852.59
2018-12-15T04:31:47.280Z,102849.08
2018-12-15T04:34:51.502Z,102845.06
2018-12-15T04:37:55.748Z,102849.08
2018-12-15T04:40:59.947Z,102845.54
2018-12-15T04:44:04.539Z,102851.88
2018-12-15T04:47:09.101Z,102857.95
2018-12-15T04:50:13.447Z,102858.34
2018-12-15T04:53:17.637Z,102861.38
2018-12-15T04:56:21.871Z,102854.68
2018-12-15T04:59:26.064Z,102854.68
2018-12-15T05:02:30.426Z,102849.91
2018-12-15T05:05:34.632Z,102854.44
2018-12-15T05:08:38.875Z,102850.25
2018-12-15T05:11:43.178Z,102855.84
2018-12-15T05:14:47.391Z,102850.71
2018-12-15T05:17:51.596Z,102852.05
2018-12-15T05:20:55.927Z,102852.41
2018-12-15T05:24:00.134Z,102850.95
2018-12-15T05:27:05.148Z,102852.05
2018-12-15T05:30:09.621Z,102852.62
2018-12-15T05:33:13.831Z,102855.88
2018-12-15T05:36:18.215Z,102866.81
2018-12-15T05:39:22.375Z,102861.34
2018-12-15T05:42:26.657Z,102865.36
2018-12-15T05:45:30.952Z,102863.66
2018-12-15T05:48:35.216Z,102872.41
2018-12-15T05:51:39.648Z,102867.45
2018-12-15T05:54:43.842Z,102869.43
2018-12-15T05:57:48.051Z,102869.03
2018-12-15T06:00:52.240Z,102870.13
2018-12-15T06:03:56.441Z,102865.95
2018-12-15T06:07:00.646Z,102866.45
2018-12-15T06:10:06.054Z,102868.26
2018-12-15T06:13:10.323Z,102864.13
2018-12-15T06:16:14.612Z,102863.55
2018-12-15T06:19:18.811Z,102868.09
2018-12-15T06:22:23.036Z,102867.98
2018-12-15T06:25:27.352Z,102865.66
2018-12-15T06:28:31.552Z,102867.70
2018-12-15T06:31:35.811Z,102870.59
2018-12-15T06:34:40.040Z,102867.17
2018-12-15T06:37:44.303Z,102868.14
2018-12-15T06:40:48.601Z,102864.61
2018-12-15T06:43:52.989Z,102860.01
2018-12-15T06:46:57.188Z,102856.75
2018-12-15T06:50:01.378Z,102853.48
2018-12-15T06:53:05.657Z,102861.01
2018-12-15T06:56:09.947Z,102852.98
2018-12-15T06:59:14.191Z,102855.66
2018-12-15T07:02:18.473Z,102859.20
2018-12-15T07:05:22.771Z,102854.42
2018-12-15T07:08:26.973Z,102856.35
2018-12-15T07:11:31.246Z,102845.40
2018-12-15T07:14:35.453Z,102847.72
2018-12-15T07:17:39.719Z,102848.08
2018-12-15T07:20:44.051Z,102849.66
2018-12-15T07:23:48.272Z,102845.88
2018-12-15T07:26:52.615Z,102853.90
2018-12-15T07:29:56.803Z,102852.84
2018-12-15T07:33:01.049Z,102854.07
2018-12-15T07:36:05.357Z,102853.48
2018-12-15T07:39:09.858Z,102855.54
2018-12-15T07:42:14.256Z,102854.70
2018-12-15T07:45:18.495Z,102853.37
2018-12-15T07:48:22.760Z,102849.72
2018-12-15T07:51:27.038Z,102860.78
2018-12-15T07:54:31.231Z,102858.86
2018-12-15T07:57:35.520Z,102857.88
2018-12-15T08:00:39.880Z,102856.66
2018-12-15T08:03:44.214Z,102857.50
2018-12-15T08:06:48.508Z,102855.77
2018-12-15T08:09:52.797Z,102856.99
2018-12-15T08:13:00.362Z,102855.54
2018-12-15T08:16:04.677Z,102856.52
2018-12-15T08:19:08.870Z,102854.48
2018-12-15T08:22:13.103Z,102850.47
2018-12-15T08:25:17.555Z,102860.08
2018-12-15T08:28:21.855Z,102862.88
2018-12-15T08:31:26.125Z,102870.90
2018-12-15T08:34:30.354Z,102871.27
2018-12-15T08:37:34.720Z,102875.89
2018-12-15T08:40:38.995Z,102877.23
2018-12-15T08:43:43.239Z,102880.63
2018-12-15T08:46:47.623Z,102879.91
2018-12-15T08:49:51.846Z,102887.55
2018-12-15T08:52:56.132Z,102887.94
2018-12-15T08:56:00.339Z,102887.44
2018-12-15T08:59:04.612Z,102888.30
2018-12-15T09:02:08.819Z,102892.20
2018-12-15T09:05:13.071Z,102896.47
2018-12-15T09:08:17.369Z,102887.96
2018-12-15T09:11:21.755Z,102898.20
2018-12-15T09:14:25.967Z,102898.92
2018-12-15T09:17:30.247Z,102897.00
2018-12-15T09:20:34.518Z,102894.31
2018-12-15T09:23:38.840Z,102899.67
2018-12-15T09:26:43.068Z,102897.39
2018-12-15T09:29:47.284Z,102901.29
2018-12-15T09:32:51.481Z,102901.06
2018-12-15T09:35:55.676Z,102892.92
2018-12-15T09:38:59.870Z,102890.60
2018-12-15T09:42:04.211Z,102884.27
2018-12-15T09:45:08.627Z,102888.05
2018-12-15T09:48:12.888Z,102882.98
2018-12-15T09:51:17.092Z,102885.54
2018-12-15T09:54:21.340Z,102887.35
2018-12-15T09:57:25.622Z,102883.09
2018-12-15T10:00:29.803Z,102885.13
2018-12-15T10:03:34.103Z,102867.61
2018-12-15T10:06:38.320Z,102876.23
2018-12-15T10:09:42.595Z,102870.99
2018-12-15T10:12:46.914Z,102857.61
2018-12-15T10:15:51.115Z,102856.78
2018-12-15T10:18:55.407Z,102848.16
2018-12-15T10:21:59.695Z,102853.65
2018-12-15T10:25:04.051Z,102843.57
2018-12-15T10:28:08.245Z,102847.36
2018-12-15T10:32:19.534Z,102844.61
2018-12-15T10:35:23.963Z,102831.93
2018-12-15T10:38:28.144Z,102832.67
2018-12-15T10:41:32.344Z,102827.08
2018-12-15T10:44:36.626Z,102827.59
2018-12-15T10:47:41.059Z,102820.78
2018-12-15T10:50:45.266Z,102818.73
2018-12-15T10:53:49.543Z,102819.33
2018-12-15T10:56:53.750Z,102806.55
2018-12-15T10:59:57.951Z,102811.91
2018-12-15T11:03:02.227Z,102816.29
2018-12-15T11:06:06.548Z,102809.59
2018-12-15T11:09:10.735Z,102802.30
2018-12-15T11:12:15.000Z,102797.41
2018-12-15T11:15:19.376Z,102793.78
2018-12-15T11:18:23.568Z,102790.12
2018-12-15T11:21:27.884Z,102786.84
2018-12-15T11:24:32.138Z,102787.59
2018-12-15T11:27:36.351Z,102781.25
2018-12-15T11:30:40.723Z,102779.78
2018-12-15T11:33:44.974Z,102780.14
2018-12-15T11:36:49.264Z,102774.42
2018-12-15T11:39:53.475Z,102776.00
2018-12-15T11:42:57.697Z,102771.38
2018-12-15T11:46:01.933Z,102771.38
2018-12-15T11:49:06.299Z,102764.56
2018-12-15T11:52:10.593Z,102768.34
2018-12-15T11:55:14.850Z,102758.72
2018-12-15T11:58:20.153Z,102754.84
2018-12-15T12:01:24.443Z,102742.53
2018-12-15T12:04:28.797Z,102740.08
2018-12-15T12:07:33.111Z,102745.59
2018-12-15T12:10:37.308Z,102740.10
2018-12-15T12:13:41.647Z,102740.69
2018-12-15T12:16:45.947Z,102744.59
2018-12-15T12:19:50.465Z,102743.62
2018-12-15T12:22:54.915Z,102736.92
2018-12-15T12:25:59.275Z,102729.72
2018-12-15T12:29:03.532Z,102729.13
2018-12-15T12:32:07.819Z,102725.94
2018-12-15T12:35:12.143Z,102728.76
2018-12-15T12:38:16.369Z,102727.40
2018-12-15T12:41:20.632Z,102734.23
2018-12-15T12:44:25.078Z,102728.98
2018-12-15T12:47:29.478Z,102724.36
2018-12-15T12:50:33.785Z,102724.84
2018-12-15T12:53:38.095Z,102723.50
2018-12-15T12:56:42.366Z,102724.97
2018-12-15T12:59:46.687Z,102723.15
2018-12-15T13:02:50.946Z,102716.67
2018-12-15T13:05:55.165Z,102712.52
2018-12-15T13:08:59.470Z,102709.61
2018-12-15T13:12:03.722Z,102714.23
2018-12-15T13:15:08.167Z,102710.34
2018-12-15T13:18:12.475Z,102709.86
2018-12-15T13:21:16.759Z,102701.81
2018-12-15T13:24:21.086Z,102695.11
2018-12-15T13:27:25.410Z,102688.77
2018-12-15T13:30:29.763Z,102694.13
2018-12-15T13:33:37.063Z,102685.95
2018-12-15T13:36:41.396Z,102682.53
2018-12-15T13:39:45.673Z,102676.34
2018-12-15T13:42:50.032Z,102677.42
2018-12-15T13:45:54.469Z,102686.10
2018-12-15T13:48:58.675Z,102681.22
2018-12-15T13:52:02.975Z,102681.94
2018-12-15T13:55:07.418Z,102670.76
2018-12-15T13:58:11.615Z,102671.10
2018-12-15T14:01:15.946Z,102670.13
2018-12-15T14:04:20.152Z,102665.88
2018-12-15T14:07:24.373Z,102665.27
2018-12-15T14:10:28.661Z,102658.33
2018-12-15T14:13:32.879Z,102652.11
2018-12-15T14:16:37.079Z,102652.36
2018-12-15T14:19:41.278Z,102650.78
2018-12-15T14:22:45.638Z,102643.70
2018-12-15T14:25:49.900Z,102638.97
2018-12-15T14:28:54.267Z,102632.39
2018-12-15T14:31:58.634Z,102635.41
2018-12-15T14:35:02.959Z,102632.75
2018-12-15T14:38:07.172Z,102629.20
2018-12-15T14:41:11.467Z,102636.64
2018-12-15T14:44:15.882Z,102635.91
2018-12-15T14:47:20.145Z,102622.50
2018-12-15T14:50:24.354Z,102621.29
2018-12-15T14:53:28.636Z,102619.59
2018-12-15T14:56:32.933Z,102611.45
2018-12-15T14:59:37.200Z,102617.77
2018-12-15T15:02:41.444Z,102606.42
2018-12-15T15:05:45.649Z,102609.23
2018-12-15T15:08:49.886Z,102602.05
2018-12-15T15:11:54.215Z,102604.86
2018-12-15T15:14:58.553Z,102598.16
2018-12-15T15:18:02.905Z,102595.48
2018-12-15T15:21:07.110Z,102592.80
2018-12-15T15:24:11.424Z,102590.61
2018-12-15T15:27:15.863Z,102584.04
2018-12-15T15:30:20.130Z,102579.28
2018-12-15T15:33:24.350Z,102569.17
2018-12-15T15:36:28.642Z,102567.48
2018-12-15T15:39:32.897Z,102564.45
2018-12-15T15:42:37.190Z,102567.84
2018-12-15T15:45:41.474Z,102565.06
2018-12-15T15:48:45.695Z,102560.66
2018-12-15T15:51:49.911Z,102552.52
2018-12-15T15:54:54.163Z,102545.20
2018-12-15T15:57:58.379Z,102537.64
2018-12-15T16:01:02.673Z,102535.47
2018-12-15T16:04:06.927Z,102523.55
2018-12-15T16:07:11.218Z,102526.47
2018-12-15T16:10:15.651Z,102530.96
2018-12-15T16:13:19.962Z,102518.91
2018-12-15T16:16:33.648Z,102521.84
2018-12-15T16:19:37.959Z,102516.95
2018-12-15T16:22:42.233Z,102505.30
2018-12-15T16:25:46.466Z,102506.87
2018-12-15T16:28:50.680Z,102495.80
2018-12-15T16:31:55.155Z,102492.52
2018-12-15T16:34:59.428Z,102484.61
2018-12-15T16:38:03.827Z,102487.98
2018-12-15T16:41:08.106Z,102481.19
2018-12-15T16:44:12.342Z,102488.38
2018-12-15T16:47:16.670Z,102493.97
2018-12-15T16:50:20.970Z,102488.83
2018-12-15T16:53:25.182Z,102485.81
2018-12-15T16:56:29.459Z,102488.47
2018-12-15T16:59:33.658Z,102484.22
2018-12-15T17:02:38.062Z,102489.30
2018-12-15T17:05:42.364Z,102483.00
2018-12-15T17:08:46.670Z,102483.71
2018-12-15T17:11:50.951Z,102476.31
2018-12-15T17:14:55.231Z,102467.19
2018-12-15T17:17:59.615Z,102460.48
2018-12-15T17:21:03.996Z,102464.35
2018-12-15T17:24:08.347Z,102473.09
2018-12-15T17:27:25.512Z,102469.67
2018-12-15T17:30:29.702Z,102459.30
2018-12-15T17:33:34.172Z,102453.09
2018-12-15T17:36:38.430Z,102449.44
2018-12-15T17:39:42.852Z,102445.90
2018-12-15T17:42:47.083Z,102447.31
2018-12-15T17:45:51.334Z,102445.00
2018-12-15T17:48:55.691Z,102444.52
2018-12-15T17:51:59.912Z,102444.52
2018-12-15T17:55:05.118Z,102449.75
2018-12-15T17:58:14.689Z,102441.33
2018-12-15T18:01:15.747Z,102436.70
2018-12-15T18:04:20.027Z,102434.84
2018-12-15T18:07:24.467Z,102431.78
2018-12-15T18:10:28.669Z,102420.61
2018-12-15T18:13:33.084Z,102411.38
2018-12-15T18:16:37.383Z,102416.20
2018-12-15T18:19:41.800Z,102408.78
2018-12-15T18:22:46.131Z,102407.09
2018-12-15T18:25:50.367Z,102398.48
2018-12-15T18:28:54.590Z,102391.66
2018-12-15T18:31:58.847Z,102386.07
2018-12-15T18:35:03.112Z,102386.55
2018-12-15T18:38:07.360Z,102381.44
2018-12-15T18:41:11.749Z,102375.39
2018-12-15T18:44:15.988Z,102363.49
2018-12-15T18:47:20.211Z,102366.00
2018-12-15T18:50:24.521Z,102360.42
2018-12-15T18:53:28.763Z,102348.53
2018-12-15T18:56:32.990Z,102344.87
2018-12-15T18:59:37.431Z,102333.02
2018-12-15T19:02:41.850Z,102334.71
2018-12-15T19:05:46.192Z,102327.92
2018-12-15T19:08:50.436Z,102335.70
2018-12-15T19:11:54.744Z,102321.13
2018-12-15T19:14:59.000Z,102307.78
2018-12-15T19:18:03.392Z,102298.79
2018-12-15T19:21:08.271Z,102304.41
2018-12-15T19:24:12.900Z,102297.96
2018-12-15T19:27:17.382Z,102288.73
2018-12-15T19:30:21.711Z,102282.45
2018-12-15T19:33:26.091Z,102283.87
2018-12-15T19:36:30.536Z,102285.20
2018-12-15T19:39:34.848Z,102278.91
2018-12-15T19:42:39.127Z,102272.23
2018-12-15T19:45:43.444Z,102275.27
2018-12-15T19:48:47.731Z,102275.77
2018-12-15T19:51:52.044Z,102282.45
2018-12-15T19:54:56.259Z,102276.60
2018-12-15T19:58:00.509Z,102271.64
2018-12-15T20:01:04.904Z,102270.67
2018-12-15T20:04:09.276Z,102272.48
2018-12-15T20:07:13.551Z,102267.28
2018-12-15T20:10:17.823Z,102258.41
2018-12-15T20:13:22.070Z,102256.48
2018-12-15T20:16:27.396Z,102248.83
2018-12-15T20:19:31.717Z,102246.03
2018-12-15T20:22:36.085Z,102236.09
2018-12-15T20:25:42.568Z,102224.19
2018-12-15T20:28:46.771Z,102216.91
2018-12-15T20:31:51.007Z,102216.05
2018-12-15T20:34:55.316Z,102212.19
2018-12-15T20:37:59.540Z,102217.02
2018-12-15T20:41:03.846Z,102203.19
2018-12-15T20:44:08.148Z,102187.41
2018-12-15T20:47:12.365Z,102188.52
2018-12-15T20:50:16.579Z,102186.92
2018-12-15T20:53:20.800Z,102170.16
2018-12-15T20:56:25.002Z,102166.53
2018-12-15T20:59:29.499Z,102165.44
2018-12-15T21:02:33.730Z,102167.38
2018-12-15T21:05:38.026Z,102168.09
2018-12-15T21:08:42.251Z,102153.30
2018-12-15T21:11:46.563Z,102153.03
2018-12-15T21:14:50.852Z,102158.87
2018-12-15T21:17:55.083Z,102157.16
2018-12-15T21:20:59.357Z,102150.98
2018-12-15T21:24:03.764Z,102142.73
2018-12-15T21:27:08.813Z,102128.30
2018-12-15T21:30:13.464Z,102122.69
2018-12-15T21:33:17.668Z,102108.52
2018-12-15T21:36:21.935Z,102098.66
2018-12-15T21:39:26.187Z,102088.35
2018-12-15T21:42:31.723Z,102085.69
2018-12-15T21:45:36.121Z,102089.34
2018-12-15T21:48:40.352Z,102090.55
2018-12-15T21:51:44.663Z,102081.68
2018-12-15T21:54:48.914Z,102074.05
2018-12-15T21:57:53.144Z,102062.98
2018-12-15T22:00:57.459Z,102064.33
2018-12-15T22:04:01.802Z,102063.60
2018-12-15T22:07:06.187Z,102048.69
2018-12-15T22:10:10.775Z,102038.61
2018-12-15T22:13:15.088Z,102032.41
2018-12-15T22:16:19.419Z,102032.19
2018-12-15T22:19:23.648Z,102026.37
2018-12-15T22:22:27.939Z,102017.50
2018-12-15T22:25:32.229Z,102005.97
2018-12-15T22:28:36.471Z,102005.62
2018-12-15T22:31:40.758Z,101989.13
2018-12-15T22:34:45.076Z,101979.66
2018-12-15T22:37:49.402Z,101968.38
2018-12-15T22:40:53.622Z,101969.10
2018-12-15T22:43:57.927Z,101965.92
2018-12-15T22:47:02.167Z,101951.02
2018-12-15T22:50:09.283Z,101949.91
2018-12-15T22:53:13.535Z,101941.55
2018-12-15T22:56:17.753Z,101932.81
2018-12-15T22:59:22.174Z,101940.22
2018-12-15T23:02:26.392Z,101939.84
2018-12-15T23:05:30.861Z,101947.63
2018-12-15T23:08:35.359Z,101940.56
2018-12-15T23:11:39.601Z,101939.48
2018-12-15T23:14:44.121Z,101930.62
2018-12-15T23:17:48.327Z,101925.41
2018-12-15T23:20:53.099Z,101930.87
2018-12-15T23:23:57.327Z,101922.98
2018-12-15T23:27:01.557Z,101915.62
2018-12-15T23:30:08.151Z,101912.44
2018-12-15T23:33:12.447Z,101916.70
2018-12-15T23:36:16.735Z,101909.17
2018-12-15T23:39:20.975Z,101902.14
2018-12-15T23:42:25.363Z,101891.59
2018-12-15T23:45:29.665Z,101884.16
2018-12-15T23:48:34.134Z,101869.26
2018-12-15T23:51:38.384Z,101863.06
2018-12-15T23:54:42.639Z,101853.02
2018-12-15T23:57:46.860Z,101850.10
